Time;durP1;ratioP1;P1;durP2;ratioP2;P2;SDS_P1;SDS_P2;PMS_P1;PMS_P2;Temp;Humidity;BMP_temperature;BMP_pressure;BME280_temperature;BME280_humidity;BME280_pressure;Samples;Min_cycle;Max_cycle;Signal;HPM_P1;HPM_P2
2022/06/25 00:01:20;;;;;;;17.52;14.30;;;;;;;;;;5078230;28;20024;-66
2022/06/25 00:03:46;;;;;;;15.63;12.38;;;;;;;;;;5084648;28;20032;-66
2022/06/25 00:06:12;;;;;;;16.10;12.13;;;;;;;;;;5072539;28;20125;-66
2022/06/25 00:08:39;;;;;;;16.52;14.20;;;;;;;;;;5058913;28;20744;-66
2022/06/25 00:11:05;;;;;;;17.45;14.52;;;;;;;;;;5058996;28;20486;-67
2022/06/25 00:13:30;;;;;;;18.23;16.33;;;;;;;;;;5059393;28;20036;-66
2022/06/25 00:15:55;;;;;;;19.40;16.08;;;;;;;;;;5059139;28;20419;-66
2022/06/25 00:18:21;;;;;;;22.75;16.17;;;;;;;;;;5066752;28;20376;-66
2022/06/25 00:20:47;;;;;;;17.40;15.50;;;;;;;;;;5076802;28;20026;-66
2022/06/25 00:23:12;;;;;;;18.95;15.93;;;;;;;;;;5074788;28;20129;-66
2022/06/25 00:25:38;;;;;;;17.60;15.35;;;;;;;;;;5066472;28;20021;-66
2022/06/25 00:28:03;;;;;;;20.58;16.15;;;;;;;;;;5083518;28;20032;-67
2022/06/25 00:30:29;;;;;;;16.45;13.90;;;;;;;;;;5061263;28;20125;-66
2022/06/25 00:32:54;;;;;;;20.05;16.80;;;;;;;;;;5062735;28;20484;-67
2022/06/25 00:35:20;;;;;;;22.45;17.45;;;;;;;;;;5058582;28;20035;-66
2022/06/25 00:37:45;;;;;;;18.75;16.67;;;;;;;;;;5056846;28;20059;-66
2022/06/25 00:40:11;;;;;;;17.05;14.73;;;;;;;;;;5076933;28;20429;-66
2022/06/25 00:42:36;;;;;;;16.98;12.60;;;;;;;;;;5074598;28;20016;-66
2022/06/25 00:45:02;;;;;;;20.98;17.55;;;;;;;;;;5081990;28;20020;-67
2022/06/25 00:47:27;;;;;;;22.80;19.77;;;;;;;;;;5073838;28;20106;-66
2022/06/25 00:49:53;;;;;;;24.13;21.30;;;;;;;;;;5082023;28;20575;-66
2022/06/25 00:52:19;;;;;;;20.90;17.75;;;;;;;;;;5076699;28;20032;-66
2022/06/25 00:54:55;;;;;;;21.67;19.25;;;;;;;;;;5082325;28;20475;-66
2022/06/25 00:57:24;;;;;;;22.40;17.30;;;;;;;;;;5074807;28;20464;-66
2022/06/25 00:59:50;;;;;;;22.63;19.10;;;;;;;;;;5080180;28;20027;-66
2022/06/25 01:02:15;;;;;;;24.10;19.85;;;;;;;;;;5081935;28;20515;-66
2022/06/25 01:04:41;;;;;;;22.90;19.60;;;;;;;;;;5076523;28;20016;-66
2022/06/25 01:07:07;;;;;;;24.13;19.52;;;;;;;;;;5085729;28;20036;-66
2022/06/25 01:09:32;;;;;;;25.13;20.50;;;;;;;;;;5086397;28;20027;-67
2022/06/25 01:11:57;;;;;;;25.05;18.55;;;;;;;;;;5077964;28;20074;-66
2022/06/25 01:14:22;;;;;;;22.10;19.33;;;;;;;;;;5073948;28;20020;-67
2022/06/25 01:16:48;;;;;;;28.70;16.65;;;;;;;;;;5075824;28;20047;-66
2022/06/25 01:19:14;;;;;;;56.25;17.05;;;;;;;;;;5090580;28;20028;-66
2022/06/25 01:21:41;;;;;;;45.63;16.88;;;;;;;;;;5090884;28;20024;-66
2022/06/25 01:24:07;;;;;;;37.92;18.92;;;;;;;;;;5084723;28;20020;-66
2022/06/25 01:26:33;;;;;;;33.25;17.70;;;;;;;;;;5083435;28;20480;-66
2022/06/25 01:28:59;;;;;;;26.15;19.10;;;;;;;;;;5081841;28;20028;-66
2022/06/25 01:31:24;;;;;;;23.77;17.98;;;;;;;;;;5075526;28;20104;-66
2022/06/25 01:33:49;;;;;;;23.08;18.85;;;;;;;;;;5081712;28;20353;-67
2022/06/25 01:36:15;;;;;;;19.65;16.70;;;;;;;;;;5086159;28;20490;-67
2022/06/25 01:38:40;;;;;;;19.50;15.43;;;;;;;;;;5077693;28;20029;-66
2022/06/25 01:41:05;;;;;;;20.05;16.88;;;;;;;;;;5081414;28;20415;-66
2022/06/25 01:43:30;;;;;;;21.55;17.27;;;;;;;;;;5087300;28;20024;-66
2022/06/25 01:45:56;;;;;;;22.52;15.55;;;;;;;;;;5077685;28;20058;-67
2022/06/25 01:48:21;;;;;;;18.23;16.33;;;;;;;;;;5075222;28;20021;-66
2022/06/25 01:50:46;;;;;;;17.92;15.48;;;;;;;;;;5078631;28;20043;-66
2022/06/25 01:53:11;;;;;;;19.10;15.77;;;;;;;;;;5082967;28;20043;-66
2022/06/25 01:55:37;;;;;;;18.65;15.73;;;;;;;;;;5074976;28;20017;-66
2022/06/25 01:58:02;;;;;;;19.80;15.82;;;;;;;;;;5085616;28;20025;-66
2022/06/25 02:00:29;;;;;;;20.25;16.10;;;;;;;;;;5073769;28;20020;-66
2022/06/25 02:02:54;;;;;;;20.38;16.90;;;;;;;;;;5081385;28;20024;-67
2022/06/25 02:05:56;;;;;;;22.00;18.33;;;;;;;;;;5078249;28;20044;-66
2022/06/25 02:08:07;;;;;;;23.13;19.33;;;;;;;;;;5081012;28;20032;-66
2022/06/25 02:10:32;;;;;;;22.75;17.17;;;;;;;;;;5075977;28;20029;-66
2022/06/25 02:12:57;;;;;;;24.65;17.60;;;;;;;;;;5072983;28;20315;-67
2022/06/25 02:15:22;;;;;;;23.92;19.02;;;;;;;;;;5073305;28;20058;-67
2022/06/25 02:17:48;;;;;;;23.65;19.10;;;;;;;;;;5085174;28;20948;-67
2022/06/25 02:20:13;;;;;;;25.98;20.30;;;;;;;;;;5083523;28;20028;-66
2022/06/25 02:22:38;;;;;;;26.20;20.77;;;;;;;;;;5076324;28;20028;-66
2022/06/25 02:25:04;;;;;;;25.80;20.85;;;;;;;;;;5082064;28;20404;-67
2022/06/25 02:27:29;;;;;;;25.27;21.55;;;;;;;;;;5075731;28;20467;-67
2022/06/25 02:29:54;;;;;;;26.05;21.08;;;;;;;;;;5080920;28;20599;-67
2022/06/25 02:32:19;;;;;;;26.95;22.10;;;;;;;;;;5073106;28;20500;-66
2022/06/25 02:34:45;;;;;;;25.95;22.40;;;;;;;;;;5078288;28;20514;-66
2022/06/25 02:37:10;;;;;;;27.95;22.45;;;;;;;;;;5078638;28;20033;-66
2022/06/25 02:39:36;;;;;;;30.02;23.73;;;;;;;;;;5072142;28;20103;-66
2022/06/25 02:42:01;;;;;;;28.90;23.20;;;;;;;;;;5075409;28;20035;-66
2022/06/25 02:44:26;;;;;;;29.85;24.48;;;;;;;;;;5085865;28;20103;-66
2022/06/25 02:46:51;;;;;;;30.52;25.42;;;;;;;;;;5077741;28;20086;-66
2022/06/25 02:49:16;;;;;;;33.28;27.42;;;;;;;;;;5079084;28;20388;-66
2022/06/25 02:51:42;;;;;;;35.20;27.90;;;;;;;;;;5080478;28;20101;-66
2022/06/25 02:54:07;;;;;;;39.78;28.83;;;;;;;;;;5071540;28;20370;-66
2022/06/25 02:59:16;;;;;;;38.45;29.23;;;;;;;;;;5086724;28;20047;-66
2022/06/25 03:01:41;;;;;;;33.92;26.88;;;;;;;;;;5073298;28;20024;-66
2022/06/25 03:04:06;;;;;;;33.80;25.75;;;;;;;;;;5077708;28;20020;-66
2022/06/25 03:06:31;;;;;;;37.38;29.10;;;;;;;;;;5081369;28;20031;-66
2022/06/25 03:08:57;;;;;;;42.17;30.08;;;;;;;;;;5083583;28;20024;-66
2022/06/25 03:11:22;;;;;;;40.50;29.48;;;;;;;;;;5078498;28;20024;-66
2022/06/25 03:13:47;;;;;;;39.33;31.00;;;;;;;;;;5074048;28;20065;-66
2022/06/25 03:16:12;;;;;;;38.95;31.27;;;;;;;;;;5083242;28;20111;-66
2022/06/25 03:18:38;;;;;;;42.45;31.25;;;;;;;;;;5079107;28;20043;-66
2022/06/25 03:21:03;;;;;;;42.10;32.50;;;;;;;;;;5079047;28;20016;-66
2022/06/25 03:23:29;;;;;;;46.30;34.00;;;;;;;;;;5085680;28;20039;-66
2022/06/25 03:25:54;;;;;;;47.30;34.58;;;;;;;;;;5075007;28;20020;-66
2022/06/25 03:28:19;;;;;;;52.38;36.60;;;;;;;;;;5082611;28;20044;-66
2022/06/25 03:30:45;;;;;;;53.58;37.45;;;;;;;;;;5077971;28;20043;-66
2022/06/25 03:33:10;;;;;;;57.55;38.58;;;;;;;;;;5076568;28;20024;-66
2022/06/25 03:35:35;;;;;;;56.88;39.60;;;;;;;;;;5077409;28;20074;-66
2022/06/25 03:38:01;;;;;;;60.08;38.97;;;;;;;;;;5084692;28;20518;-67
2022/06/25 03:40:26;;;;;;;52.28;37.42;;;;;;;;;;5079376;28;20168;-66
2022/06/25 03:42:51;;;;;;;46.75;35.25;;;;;;;;;;5085012;28;20052;-67
2022/06/25 03:45:16;;;;;;;47.67;35.55;;;;;;;;;;5070236;28;20090;-66
2022/06/25 03:47:49;;;;;;;50.10;36.30;;;;;;;;;;5070659;28;20046;-66
2022/06/25 03:50:15;;;;;;;46.80;34.58;;;;;;;;;;5071015;28;20024;-66
2022/06/25 03:52:40;;;;;;;44.00;33.83;;;;;;;;;;5074258;28;20035;-66
2022/06/25 03:55:06;;;;;;;40.58;31.15;;;;;;;;;;5076132;28;20606;-66
2022/06/25 03:57:31;;;;;;;39.03;30.40;;;;;;;;;;5072377;28;20036;-66
2022/06/25 03:59:57;;;;;;;42.90;32.05;;;;;;;;;;5075864;28;20017;-66
2022/06/25 04:02:22;;;;;;;38.63;30.08;;;;;;;;;;5073426;28;20066;-66
2022/06/25 04:04:47;;;;;;;35.30;26.90;;;;;;;;;;5072839;28;20516;-66
2022/06/25 04:07:12;;;;;;;29.85;23.38;;;;;;;;;;5082804;28;20023;-66
2022/06/25 04:09:38;;;;;;;28.67;21.52;;;;;;;;;;5069937;28;20070;-66
2022/06/25 04:12:03;;;;;;;24.52;18.85;;;;;;;;;;5079495;28;20051;-66
2022/06/25 04:14:28;;;;;;;23.90;19.25;;;;;;;;;;5072674;28;20028;-66
2022/06/25 04:16:55;;;;;;;25.30;19.52;;;;;;;;;;5080857;28;20472;-66
2022/06/25 04:19:20;;;;;;;27.63;22.75;;;;;;;;;;5073081;28;20012;-67
2022/06/25 04:21:49;;;;;;;30.45;23.23;;;;;;;;;;5077572;28;20522;-67
2022/06/25 04:24:15;;;;;;;27.80;21.30;;;;;;;;;;5080206;28;20020;-67
2022/06/25 04:26:41;;;;;;;26.60;21.42;;;;;;;;;;5080692;28;20035;-67
2022/06/25 04:29:08;;;;;;;27.15;21.17;;;;;;;;;;5078010;28;20029;-67
2022/06/25 04:31:34;;;;;;;25.95;19.48;;;;;;;;;;5076142;28;20021;-67
2022/06/25 04:34:00;;;;;;;27.13;19.48;;;;;;;;;;5079759;28;20410;-67
2022/06/25 04:36:26;;;;;;;26.17;19.40;;;;;;;;;;5075610;28;20032;-67
2022/06/25 04:38:51;;;;;;;28.58;19.98;;;;;;;;;;5084724;28;20039;-67
2022/06/25 04:41:16;;;;;;;27.83;20.58;;;;;;;;;;5086561;28;20062;-67
2022/06/25 04:43:42;;;;;;;29.10;19.75;;;;;;;;;;5075824;28;20611;-67
2022/06/25 04:46:07;;;;;;;29.60;18.38;;;;;;;;;;5072420;28;20347;-67
2022/06/25 04:48:32;;;;;;;24.20;17.55;;;;;;;;;;5074704;28;20021;-67
2022/06/25 04:50:58;;;;;;;22.58;17.10;;;;;;;;;;5088057;28;20435;-67
2022/06/25 04:53:23;;;;;;;21.63;16.80;;;;;;;;;;5078506;28;20093;-67
2022/06/25 04:55:48;;;;;;;19.40;15.93;;;;;;;;;;5080012;28;20096;-67
2022/06/25 04:58:13;;;;;;;20.08;15.75;;;;;;;;;;5082781;28;20032;-67
2022/06/25 05:00:40;;;;;;;19.27;15.40;;;;;;;;;;5076786;28;20017;-68
2022/06/25 05:03:05;;;;;;;20.05;14.90;;;;;;;;;;5083413;28;20020;-67
2022/06/25 05:05:31;;;;;;;20.75;15.30;;;;;;;;;;5078360;28;20031;-67
2022/06/25 05:07:56;;;;;;;20.92;15.05;;;;;;;;;;5089566;28;20170;-67
2022/06/25 05:10:21;;;;;;;19.70;15.23;;;;;;;;;;5082078;28;20085;-67
2022/06/25 05:15:30;;;;;;;19.48;14.88;;;;;;;;;;5075762;28;20031;-67
2022/06/25 05:17:55;;;;;;;18.85;14.73;;;;;;;;;;5074592;28;20337;-67
2022/06/25 05:20:21;;;;;;;21.55;14.23;;;;;;;;;;5076653;28;20361;-67
2022/06/25 05:22:46;;;;;;;20.13;15.65;;;;;;;;;;5083914;28;20030;-67
2022/06/25 05:25:11;;;;;;;16.52;13.45;;;;;;;;;;5086019;28;20024;-68
2022/06/25 05:27:37;;;;;;;18.05;13.30;;;;;;;;;;5073781;28;20045;-67
2022/06/25 05:30:03;;;;;;;17.33;12.77;;;;;;;;;;5082002;28;20081;-67
2022/06/25 05:32:28;;;;;;;15.35;12.30;;;;;;;;;;5081689;28;20028;-67
2022/06/25 05:34:54;;;;;;;14.82;11.73;;;;;;;;;;5084319;28;20029;-67
2022/06/25 05:37:20;;;;;;;13.35;11.15;;;;;;;;;;5078794;28;20066;-68
2022/06/25 05:39:45;;;;;;;15.02;10.88;;;;;;;;;;5073429;28;20024;-67
2022/06/25 05:42:10;;;;;;;14.80;9.50;;;;;;;;;;5078847;28;20038;-67
2022/06/25 05:44:35;;;;;;;13.38;9.55;;;;;;;;;;5074386;28;20465;-67
2022/06/25 05:47:00;;;;;;;12.55;8.20;;;;;;;;;;5077633;28;20197;-67
2022/06/25 05:49:26;;;;;;;10.63;8.00;;;;;;;;;;5073172;28;20016;-67
2022/06/25 05:51:51;;;;;;;10.98;7.85;;;;;;;;;;5074852;28;20138;-67
2022/06/25 05:54:16;;;;;;;11.95;7.55;;;;;;;;;;5074330;28;20020;-67
2022/06/25 05:56:41;;;;;;;10.18;7.15;;;;;;;;;;5075621;28;20753;-67
2022/06/25 05:59:07;;;;;;;9.05;7.03;;;;;;;;;;5074267;28;20021;-67
2022/06/25 06:01:32;;;;;;;11.20;7.05;;;;;;;;;;5073016;28;20306;-68
2022/06/25 06:03:57;;;;;;;9.20;6.47;;;;;;;;;;5076428;28;20016;-67
2022/06/25 06:06:23;;;;;;;9.70;6.35;;;;;;;;;;5077933;28;20060;-67
2022/06/25 06:08:48;;;;;;;9.27;6.20;;;;;;;;;;5078582;28;20107;-67
2022/06/25 06:11:13;;;;;;;10.18;6.20;;;;;;;;;;5080018;28;20056;-67
2022/06/25 06:13:38;;;;;;;7.47;4.82;;;;;;;;;;5077812;28;20058;-67
2022/06/25 06:16:04;;;;;;;13.60;5.65;;;;;;;;;;5077089;28;20023;-67
2022/06/25 06:18:29;;;;;;;9.98;5.75;;;;;;;;;;5079664;28;20165;-67
2022/06/25 06:20:54;;;;;;;9.30;5.30;;;;;;;;;;5074730;28;20102;-67
2022/06/25 06:23:19;;;;;;;8.75;6.03;;;;;;;;;;5073517;28;20039;-67
2022/06/25 06:25:44;;;;;;;10.68;6.25;;;;;;;;;;5081035;28;20456;-67
2022/06/25 06:28:10;;;;;;;8.77;5.60;;;;;;;;;;5078375;28;20478;-67
2022/06/25 06:30:35;;;;;;;8.07;4.68;;;;;;;;;;5075457;28;20038;-67
2022/06/25 06:33:00;;;;;;;6.45;4.28;;;;;;;;;;5074926;28;20016;-67
2022/06/25 06:35:25;;;;;;;7.97;4.78;;;;;;;;;;5084008;28;20103;-67
2022/06/25 06:37:50;;;;;;;7.45;3.80;;;;;;;;;;5070984;28;20028;-67
2022/06/25 06:40:16;;;;;;;7.53;3.75;;;;;;;;;;5073274;28;20012;-67
2022/06/25 06:42:41;;;;;;;11.30;3.60;;;;;;;;;;5081471;28;20135;-67
2022/06/25 06:45:06;;;;;;;9.73;3.60;;;;;;;;;;5076317;28;20437;-67
2022/06/25 06:47:32;;;;;;;7.03;3.08;;;;;;;;;;5072121;28;20016;-67
2022/06/25 06:49:57;;;;;;;5.85;2.75;;;;;;;;;;5073852;28;20444;-68
2022/06/25 06:52:22;;;;;;;6.05;3.50;;;;;;;;;;5076891;28;20060;-68
2022/06/25 06:54:48;;;;;;;7.40;3.13;;;;;;;;;;5075327;28;20400;-67
2022/06/25 06:57:14;;;;;;;6.32;3.25;;;;;;;;;;5085230;28;20028;-68
2022/06/25 06:59:40;;;;;;;5.85;2.80;;;;;;;;;;5080673;28;20460;-68
2022/06/25 07:02:06;;;;;;;9.73;2.65;;;;;;;;;;5081171;28;20031;-68
2022/06/25 07:04:31;;;;;;;7.65;3.13;;;;;;;;;;5082203;28;21389;-68
2022/06/25 07:06:56;;;;;;;5.68;2.42;;;;;;;;;;5082318;28;20103;-67
2022/06/25 07:09:22;;;;;;;6.75;2.60;;;;;;;;;;5074111;28;20138;-68
2022/06/25 07:11:47;;;;;;;9.00;2.70;;;;;;;;;;5081095;28;20028;-67
2022/06/25 07:14:13;;;;;;;3.90;2.13;;;;;;;;;;5072172;28;20063;-68
2022/06/25 07:16:39;;;;;;;6.10;2.65;;;;;;;;;;5076724;28;20109;-68
2022/06/25 07:19:04;;;;;;;7.68;2.40;;;;;;;;;;5072622;28;20544;-68
2022/06/25 07:21:30;;;;;;;7.03;2.42;;;;;;;;;;5088797;28;20028;-67
2022/06/25 07:23:55;;;;;;;6.55;2.50;;;;;;;;;;5071597;28;20020;-68
2022/06/25 07:26:21;;;;;;;5.07;2.45;;;;;;;;;;5074700;28;20047;-67
2022/06/25 07:28:47;;;;;;;4.60;2.03;;;;;;;;;;5081420;28;20614;-68
2022/06/25 07:31:12;;;;;;;6.72;2.05;;;;;;;;;;5087857;28;20024;-68
2022/06/25 07:33:37;;;;;;;3.78;1.80;;;;;;;;;;5088992;28;20051;-68
2022/06/25 07:36:03;;;;;;;4.20;1.88;;;;;;;;;;5090218;28;20094;-67
2022/06/25 07:38:28;;;;;;;6.28;1.85;;;;;;;;;;5078342;28;20486;-68
2022/06/25 07:40:53;;;;;;;4.43;1.80;;;;;;;;;;5072931;28;20028;-68
2022/06/25 07:43:18;;;;;;;5.72;1.98;;;;;;;;;;5082259;28;20538;-68
2022/06/25 07:45:44;;;;;;;6.70;2.00;;;;;;;;;;5073510;28;20027;-68
2022/06/25 07:48:09;;;;;;;3.85;1.58;;;;;;;;;;5070604;28;20064;-67
2022/06/25 07:53:18;;;;;;;4.07;1.60;;;;;;;;;;5081031;28;20391;-67
2022/06/25 07:55:43;;;;;;;5.60;1.73;;;;;;;;;;5080228;28;20036;-67
2022/06/25 07:58:09;;;;;;;3.45;1.40;;;;;;;;;;5080223;28;20369;-68
2022/06/25 08:00:34;;;;;;;3.45;1.30;;;;;;;;;;5083554;28;20361;-67
2022/06/25 08:03:01;;;;;;;4.57;1.65;;;;;;;;;;5077106;28;20391;-67
2022/06/25 08:05:26;;;;;;;7.15;1.50;;;;;;;;;;5077729;28;20081;-68
2022/06/25 08:07:51;;;;;;;6.55;1.60;;;;;;;;;;5074141;28;20029;-67
2022/06/25 08:10:17;;;;;;;5.57;1.65;;;;;;;;;;5068410;28;20107;-68
2022/06/25 08:12:42;;;;;;;4.28;1.60;;;;;;;;;;5074287;28;20040;-68
2022/06/25 08:15:07;;;;;;;3.33;1.58;;;;;;;;;;5083695;28;20024;-68
2022/06/25 08:17:34;;;;;;;3.88;1.30;;;;;;;;;;5077478;28;20452;-68
2022/06/25 08:19:59;;;;;;;5.07;1.42;;;;;;;;;;5074381;28;20035;-68
2022/06/25 08:22:24;;;;;;;5.25;1.20;;;;;;;;;;5077184;28;20025;-68
2022/06/25 08:24:50;;;;;;;3.95;1.48;;;;;;;;;;5079535;28;20448;-67
2022/06/25 08:27:15;;;;;;;5.22;1.23;;;;;;;;;;5084109;28;20020;-68
2022/06/25 08:29:40;;;;;;;3.22;1.20;;;;;;;;;;5080416;28;20020;-68
2022/06/25 08:32:06;;;;;;;4.30;1.70;;;;;;;;;;5081489;28;20114;-68
2022/06/25 08:34:31;;;;;;;5.35;1.25;;;;;;;;;;5072042;28;20067;-68
2022/06/25 08:36:56;;;;;;;3.60;1.10;;;;;;;;;;5081940;28;20056;-68
2022/06/25 08:39:21;;;;;;;4.68;1.10;;;;;;;;;;5073154;28;20032;-67
2022/06/25 08:41:46;;;;;;;2.80;1.20;;;;;;;;;;5077006;28;20414;-68
2022/06/25 08:44:12;;;;;;;4.82;1.13;;;;;;;;;;5073356;28;20503;-68
2022/06/25 08:46:37;;;;;;;4.90;1.10;;;;;;;;;;5072937;28;20027;-68
2022/06/25 08:49:03;;;;;;;3.67;1.25;;;;;;;;;;5087148;28;20035;-68
2022/06/25 08:51:28;;;;;;;4.28;1.20;;;;;;;;;;5088389;28;20024;-68
2022/06/25 08:53:57;;;;;;;4.38;1.02;;;;;;;;;;5074940;28;20094;-68
2022/06/25 08:56:23;;;;;;;3.17;1.17;;;;;;;;;;5083447;28;20447;-68
2022/06/25 08:58:48;;;;;;;3.42;1.13;;;;;;;;;;5076915;28;20104;-68
2022/06/25 09:01:13;;;;;;;3.85;0.98;;;;;;;;;;5070126;28;20017;-68
2022/06/25 09:03:39;;;;;;;3.25;1.10;;;;;;;;;;5084124;28;20114;-68
2022/06/25 09:06:14;;;;;;;5.65;1.27;;;;;;;;;;5088476;28;20023;-68
2022/06/25 09:08:40;;;;;;;4.30;1.13;;;;;;;;;;5090506;28;20028;-68
2022/06/25 09:11:06;;;;;;;4.70;1.20;;;;;;;;;;5080019;28;20094;-68
2022/06/25 09:13:31;;;;;;;3.45;1.17;;;;;;;;;;5073953;28;20037;-68
2022/06/25 09:15:56;;;;;;;7.13;1.35;;;;;;;;;;5086348;28;20031;-68
2022/06/25 09:18:21;;;;;;;4.32;1.20;;;;;;;;;;5093627;28;20028;-68
2022/06/25 09:20:57;;;;;;;4.40;1.30;;;;;;;;;;5078099;28;20107;-68
2022/06/25 09:23:22;;;;;;;2.83;1.02;;;;;;;;;;5072272;28;20024;-68
2022/06/25 09:25:59;;;;;;;5.13;1.20;;;;;;;;;;5074609;28;20105;-68
2022/06/25 09:28:50;;;;;;;3.08;1.00;;;;;;;;;;5087304;28;20021;-68
2022/06/25 09:31:34;;;;;;;3.42;0.95;;;;;;;;;;5089887;28;20040;-68
2022/06/25 09:34:03;;;;;;;3.28;0.95;;;;;;;;;;5092412;28;20042;-68
2022/06/25 09:36:28;;;;;;;4.35;0.90;;;;;;;;;;5084456;28;20090;-68
2022/06/25 09:38:54;;;;;;;3.03;0.90;;;;;;;;;;5074896;28;20274;-68
2022/06/25 09:41:22;;;;;;;3.15;0.70;;;;;;;;;;5073361;28;20020;-68
2022/06/25 09:43:47;;;;;;;5.07;0.85;;;;;;;;;;5079082;28;20032;-67
2022/06/25 09:46:13;;;;;;;4.75;0.95;;;;;;;;;;5093075;28;20016;-67
2022/06/25 09:48:40;;;;;;;5.03;0.90;;;;;;;;;;5076268;28;20056;-68
2022/06/25 09:51:11;;;;;;;2.75;0.90;;;;;;;;;;5076224;28;20016;-68
2022/06/25 09:53:50;;;;;;;5.50;0.93;;;;;;;;;;5093356;28;20453;-68
2022/06/25 09:56:17;;;;;;;4.63;0.95;;;;;;;;;;5076610;28;20022;-68
2022/06/25 09:58:42;;;;;;;5.45;0.88;;;;;;;;;;5086323;28;20032;-68
2022/06/25 10:01:08;;;;;;;4.68;0.98;;;;;;;;;;5092160;28;20020;-68
2022/06/25 10:03:34;;;;;;;4.22;1.10;;;;;;;;;;5080926;28;20044;-68
2022/06/25 10:05:59;;;;;;;3.28;0.90;;;;;;;;;;5075197;28;20056;-67
2022/06/25 10:08:26;;;;;;;3.13;0.90;;;;;;;;;;5073295;28;20031;-68
2022/06/25 10:10:52;;;;;;;1.95;0.70;;;;;;;;;;5079475;28;20420;-67
2022/06/25 10:13:18;;;;;;;2.63;0.73;;;;;;;;;;5081600;28;20024;-68
2022/06/25 10:15:47;;;;;;;2.60;0.90;;;;;;;;;;5081555;28;20530;-68
2022/06/25 10:18:12;;;;;;;4.57;1.00;;;;;;;;;;5073033;28;20020;-68
2022/06/25 10:20:38;;;;;;;7.40;1.00;;;;;;;;;;5081745;28;20016;-68
2022/06/25 10:23:05;;;;;;;3.40;0.90;;;;;;;;;;5091416;28;20023;-68
2022/06/25 10:25:31;;;;;;;3.55;1.45;;;;;;;;;;5089630;28;20040;-68
2022/06/25 10:28:22;;;;;;;2.28;0.90;;;;;;;;;;5076313;28;20025;-68
2022/06/25 10:30:52;;;;;;;3.30;0.82;;;;;;;;;;5075492;28;20538;-68
2022/06/25 10:33:19;;;;;;;4.97;1.00;;;;;;;;;;5088618;28;20097;-68
2022/06/25 10:35:45;;;;;;;4.20;0.90;;;;;;;;;;5079730;28;20028;-68
2022/06/25 10:38:10;;;;;;;6.95;1.00;;;;;;;;;;5083976;28;20042;-68
2022/06/25 10:42:58;;;;;;;3.67;0.85;;;;;;;;;;5077261;28;20102;-67
2022/06/25 10:43:40;;;;;;;2.85;0.90;;;;;;;;;;5072859;28;20030;-67
2022/06/25 10:46:25;;;;;;;4.85;1.10;;;;;;;;;;5085187;28;20095;-67
2022/06/25 10:48:50;;;;;;;4.28;0.90;;;;;;;;;;5072901;28;20043;-68
2022/06/25 10:51:36;;;;;;;3.83;0.90;;;;;;;;;;5078937;28;20395;-67
2022/06/25 10:54:02;;;;;;;2.97;1.10;;;;;;;;;;5072316;28;20369;-67
2022/06/25 10:56:31;;;;;;;4.32;0.90;;;;;;;;;;5078974;28;20103;-67
2022/06/25 10:58:58;;;;;;;4.85;1.02;;;;;;;;;;5086716;28;20027;-67
2022/06/25 11:01:24;;;;;;;3.75;0.93;;;;;;;;;;5091629;28;20021;-67
2022/06/25 11:03:57;;;;;;;3.15;1.00;;;;;;;;;;5090706;28;20035;-67
2022/06/25 11:06:24;;;;;;;5.10;1.20;;;;;;;;;;5088918;28;20060;-67
2022/06/25 11:08:50;;;;;;;6.03;1.40;;;;;;;;;;5071709;28;20067;-67
2022/06/25 11:11:28;;;;;;;4.00;1.00;;;;;;;;;;5074657;28;20066;-67
2022/06/25 11:13:53;;;;;;;4.28;1.00;;;;;;;;;;5078607;28;20028;-68
2022/06/25 11:16:19;;;;;;;2.63;1.00;;;;;;;;;;5074019;28;20031;-67
2022/06/25 11:18:49;;;;;;;4.60;0.90;;;;;;;;;;5076198;28;20062;-67
2022/06/25 11:21:25;;;;;;;5.20;1.17;;;;;;;;;;5081838;28;20482;-67
2022/06/25 11:23:50;;;;;;;2.53;1.13;;;;;;;;;;5091443;28;20024;-67
2022/06/25 11:28:59;;;;;;;3.17;1.02;;;;;;;;;;5084592;28;20062;-68
2022/06/25 11:31:25;;;;;;;5.53;1.10;;;;;;;;;;5075488;28;20060;-68
2022/06/25 11:33:51;;;;;;;6.35;1.10;;;;;;;;;;5078045;28;20107;-67
2022/06/25 11:36:16;;;;;;;2.08;1.00;;;;;;;;;;5091341;28;20020;-67
2022/06/25 11:38:43;;;;;;;5.03;1.05;;;;;;;;;;5077585;28;20035;-67
2022/06/25 11:41:18;;;;;;;4.82;1.23;;;;;;;;;;5076235;28;20020;-67
2022/06/25 11:43:44;;;;;;;6.45;1.40;;;;;;;;;;5074709;28;20021;-67
2022/06/25 11:46:09;;;;;;;5.85;1.30;;;;;;;;;;5071686;28;20318;-67
2022/06/25 11:48:34;;;;;;;2.75;1.00;;;;;;;;;;5090360;28;20406;-67
2022/06/25 11:51:00;;;;;;;4.28;1.20;;;;;;;;;;5074093;28;20039;-67
2022/06/25 11:53:25;;;;;;;6.20;1.20;;;;;;;;;;5074939;28;20380;-66
2022/06/25 11:56:01;;;;;;;3.60;1.05;;;;;;;;;;5078804;28;20012;-67
2022/06/25 11:58:28;;;;;;;4.15;1.17;;;;;;;;;;5076750;28;20503;-67
2022/06/25 12:00:57;;;;;;;3.28;0.90;;;;;;;;;;5090264;28;20383;-67
2022/06/25 12:03:23;;;;;;;3.45;1.10;;;;;;;;;;5082985;28;20099;-67
2022/06/25 12:05:48;;;;;;;4.05;0.90;;;;;;;;;;5079810;28;20166;-68
2022/06/25 12:08:14;;;;;;;3.35;0.90;;;;;;;;;;5077937;28;20035;-68
2022/06/25 12:10:42;;;;;;;3.90;1.00;;;;;;;;;;5083636;28;20103;-67
2022/06/25 12:13:07;;;;;;;3.10;1.20;;;;;;;;;;5088883;28;20028;-67
2022/06/25 12:15:32;;;;;;;3.92;1.10;;;;;;;;;;5087238;28;20026;-68
2022/06/25 12:18:04;;;;;;;4.40;1.10;;;;;;;;;;5087424;28;20025;-68
2022/06/25 12:20:30;;;;;;;6.20;1.10;;;;;;;;;;5075089;28;20017;-68
2022/06/25 12:22:56;;;;;;;3.47;1.00;;;;;;;;;;5082172;28;20019;-67
2022/06/25 12:25:26;;;;;;;3.40;0.98;;;;;;;;;;5079284;28;20016;-67
2022/06/25 12:27:51;;;;;;;2.58;0.90;;;;;;;;;;5083388;28;20482;-67
2022/06/25 12:30:26;;;;;;;5.25;1.00;;;;;;;;;;5089510;28;20031;-67
2022/06/25 12:32:53;;;;;;;3.22;1.00;;;;;;;;;;5084859;28;20016;-67
2022/06/25 12:35:25;;;;;;;4.93;1.50;;;;;;;;;;5073079;28;20128;-67
2022/06/25 12:38:01;;;;;;;3.53;1.20;;;;;;;;;;5073899;28;20367;-66
2022/06/25 12:40:27;;;;;;;2.85;1.10;;;;;;;;;;5071131;28;20036;-67
2022/06/25 12:42:53;;;;;;;2.70;1.00;;;;;;;;;;5084655;28;20028;-67
2022/06/25 12:45:19;;;;;;;3.70;1.10;;;;;;;;;;5093026;28;20035;-67
2022/06/25 12:47:44;;;;;;;7.13;1.08;;;;;;;;;;5087544;28;20024;-67
2022/06/25 12:50:20;;;;;;;3.70;1.10;;;;;;;;;;5089200;28;20036;-67
2022/06/25 12:52:45;;;;;;;3.63;1.25;;;;;;;;;;5083607;28;20044;-67
2022/06/25 12:55:16;;;;;;;3.35;1.10;;;;;;;;;;5089454;28;20737;-67
2022/06/25 12:57:42;;;;;;;6.35;1.23;;;;;;;;;;5084044;28;20131;-67
2022/06/25 13:00:18;;;;;;;4.60;1.27;;;;;;;;;;5077117;28;20028;-67
2022/06/25 13:02:43;;;;;;;2.85;1.20;;;;;;;;;;5077424;28;20365;-67
2022/06/25 13:05:08;;;;;;;3.22;1.15;;;;;;;;;;5079915;28;20027;-67
2022/06/25 13:07:33;;;;;;;4.30;1.20;;;;;;;;;;5088999;28;20016;-67
2022/06/25 13:09:58;;;;;;;2.75;1.10;;;;;;;;;;5090821;28;20124;-67
2022/06/25 13:12:24;;;;;;;7.22;1.20;;;;;;;;;;5088486;28;20044;-67
2022/06/25 13:14:49;;;;;;;4.20;1.10;;;;;;;;;;5090223;28;20031;-67
2022/06/25 13:17:14;;;;;;;3.90;1.10;;;;;;;;;;5089271;28;20012;-67
2022/06/25 13:19:40;;;;;;;3.85;1.00;;;;;;;;;;5090185;28;20058;-67
2022/06/25 13:22:05;;;;;;;4.32;1.15;;;;;;;;;;5082370;28;20069;-67
2022/06/25 13:24:31;;;;;;;3.40;1.00;;;;;;;;;;5080077;28;20138;-67
2022/06/25 13:26:56;;;;;;;4.07;0.90;;;;;;;;;;5078659;28;20101;-67
2022/06/25 13:29:21;;;;;;;3.83;1.00;;;;;;;;;;5084928;28;20020;-67
2022/06/25 13:31:47;;;;;;;4.03;1.00;;;;;;;;;;5079462;28;20107;-67
2022/06/25 13:34:12;;;;;;;3.40;1.10;;;;;;;;;;5078489;28;20020;-67
2022/06/25 13:36:37;;;;;;;4.38;0.98;;;;;;;;;;5093665;28;20430;-67
2022/06/25 13:39:03;;;;;;;4.53;1.30;;;;;;;;;;5082507;28;20055;-67
2022/06/25 13:41:31;;;;;;;6.00;1.25;;;;;;;;;;5090755;28;20038;-67
2022/06/25 13:43:57;;;;;;;2.55;1.00;;;;;;;;;;5081090;28;20502;-67
2022/06/25 13:46:22;;;;;;;6.28;1.10;;;;;;;;;;5074601;28;20024;-67
2022/06/25 13:48:48;;;;;;;2.72;0.85;;;;;;;;;;5082972;28;20052;-67
2022/06/25 13:51:13;;;;;;;4.30;1.00;;;;;;;;;;5074195;28;20032;-67
2022/06/25 13:53:38;;;;;;;4.82;1.15;;;;;;;;;;5087187;28;20020;-67
2022/06/25 13:56:04;;;;;;;2.47;0.87;;;;;;;;;;5080841;28;20469;-67
2022/06/25 13:58:29;;;;;;;3.10;1.15;;;;;;;;;;5086539;28;20291;-67
2022/06/25 14:00:57;;;;;;;4.72;1.10;;;;;;;;;;5078870;28;20024;-67
2022/06/25 14:03:22;;;;;;;3.15;0.90;;;;;;;;;;5081269;28;20095;-67
2022/06/25 14:05:47;;;;;;;3.53;1.00;;;;;;;;;;5088911;28;20099;-66
2022/06/25 14:08:12;;;;;;;3.35;0.98;;;;;;;;;;5080782;28;20023;-66
2022/06/25 14:10:38;;;;;;;5.03;1.45;;;;;;;;;;5078416;28;20448;-67
2022/06/25 14:13:03;;;;;;;5.05;1.10;;;;;;;;;;5088042;28;20123;-67
2022/06/25 14:15:28;;;;;;;3.80;1.00;;;;;;;;;;5090091;28;20040;-67
2022/06/25 14:17:53;;;;;;;2.80;0.90;;;;;;;;;;5074705;28;20285;-67
2022/06/25 14:20:19;;;;;;;2.70;1.10;;;;;;;;;;5086808;28;20050;-66
2022/06/25 14:22:44;;;;;;;2.22;0.90;;;;;;;;;;5086415;28;20262;-67
2022/06/25 14:25:21;;;;;;;3.47;1.05;;;;;;;;;;5074023;28;20046;-66
2022/06/25 14:27:50;;;;;;;2.67;1.00;;;;;;;;;;5075821;28;20095;-67
2022/06/25 14:30:15;;;;;;;3.28;1.00;;;;;;;;;;5073434;28;20029;-66
2022/06/25 14:32:40;;;;;;;3.67;1.20;;;;;;;;;;5077638;28;20035;-66
2022/06/25 14:35:06;;;;;;;4.43;1.08;;;;;;;;;;5088693;28;20106;-67
2022/06/25 14:42:59;;;;;;;4.68;1.00;;;;;;;;;;5078399;28;20039;-66
2022/06/25 14:45:25;;;;;;;1.75;0.93;;;;;;;;;;5087601;28;20016;-67